sensor_id;sensor_type;location;lat;lon;timestamp;P1;durP1;ratioP1;P2;durP2;ratioP2
12663;SDS011;6396;58.490;15.528;2022-08-03T00:00:17;2.87;;;2.00;;
12663;SDS011;6396;58.490;15.528;2022-08-03T00:02:45;3.07;;;1.93;;
12663;SDS011;6396;58.490;15.528;2022-08-03T00:05:12;4.63;;;2.20;;
12663;SDS011;6396;58.490;15.528;2022-08-03T00:07:40;4.80;;;1.93;;
12663;SDS011;6396;58.490;15.528;2022-08-03T00:10:07;5.53;;;2.30;;
12663;SDS011;6396;58.490;15.528;2022-08-03T00:12:34;3.20;;;2.00;;
12663;SDS011;6396;58.490;15.528;2022-08-03T00:15:01;4.60;;;2.00;;
12663;SDS011;6396;58.490;15.528;2022-08-03T00:17:28;4.13;;;2.20;;
12663;SDS011;6396;58.490;15.528;2022-08-03T00:19:55;4.80;;;2.20;;
12663;SDS011;6396;58.490;15.528;2022-08-03T00:22:22;3.73;;;1.97;;
12663;SDS011;6396;58.490;15.528;2022-08-03T00:24:50;4.23;;;2.13;;
12663;SDS011;6396;58.490;15.528;2022-08-03T00:27:17;4.30;;;2.10;;
12663;SDS011;6396;58.490;15.528;2022-08-03T00:29:43;2.53;;;1.73;;
12663;SDS011;6396;58.490;15.528;2022-08-03T00:32:10;5.07;;;2.07;;
12663;SDS011;6396;58.490;15.528;2022-08-03T00:34:37;5.13;;;2.43;;
12663;SDS011;6396;58.490;15.528;2022-08-03T00:37:04;4.53;;;2.30;;
12663;SDS011;6396;58.490;15.528;2022-08-03T00:39:30;6.93;;;2.20;;
12663;SDS011;6396;58.490;15.528;2022-08-03T00:42:02;4.80;;;2.17;;
12663;SDS011;6396;58.490;15.528;2022-08-03T00:44:29;5.97;;;2.30;;
12663;SDS011;6396;58.490;15.528;2022-08-03T00:46:55;4.67;;;2.47;;
12663;SDS011;6396;58.490;15.528;2022-08-03T00:49:22;3.63;;;2.30;;
12663;SDS011;6396;58.490;15.528;2022-08-03T00:51:50;3.33;;;2.10;;
12663;SDS011;6396;58.490;15.528;2022-08-03T00:54:17;2.57;;;2.17;;
12663;SDS011;6396;58.490;15.528;2022-08-03T00:56:45;3.70;;;2.33;;
12663;SDS011;6396;58.490;15.528;2022-08-03T00:59:14;5.70;;;2.17;;
12663;SDS011;6396;58.490;15.528;2022-08-03T01:01:41;4.63;;;2.60;;
12663;SDS011;6396;58.490;15.528;2022-08-03T01:04:08;4.20;;;2.20;;
12663;SDS011;6396;58.490;15.528;2022-08-03T01:06:38;5.83;;;2.30;;
12663;SDS011;6396;58.490;15.528;2022-08-03T01:09:11;5.87;;;2.40;;
12663;SDS011;6396;58.490;15.528;2022-08-03T01:11:46;2.20;;;2.00;;
12663;SDS011;6396;58.490;15.528;2022-08-03T01:14:22;4.73;;;2.37;;
12663;SDS011;6396;58.490;15.528;2022-08-03T01:16:54;3.97;;;2.47;;
12663;SDS011;6396;58.490;15.528;2022-08-03T01:19:30;5.53;;;2.50;;
12663;SDS011;6396;58.490;15.528;2022-08-03T01:22:09;4.53;;;2.80;;
12663;SDS011;6396;58.490;15.528;2022-08-03T01:24:55;5.87;;;2.57;;
12663;SDS011;6396;58.490;15.528;2022-08-03T01:27:28;4.13;;;2.67;;
12663;SDS011;6396;58.490;15.528;2022-08-03T01:30:09;6.47;;;2.67;;
12663;SDS011;6396;58.490;15.528;2022-08-03T01:32:39;3.03;;;2.20;;
12663;SDS011;6396;58.490;15.528;2022-08-03T01:35:16;3.40;;;2.40;;
12663;SDS011;6396;58.490;15.528;2022-08-03T01:37:49;4.30;;;2.70;;
12663;SDS011;6396;58.490;15.528;2022-08-03T01:40:18;5.10;;;2.73;;
12663;SDS011;6396;58.490;15.528;2022-08-03T01:42:47;4.73;;;2.80;;
12663;SDS011;6396;58.490;15.528;2022-08-03T01:45:17;3.40;;;2.53;;
12663;SDS011;6396;58.490;15.528;2022-08-03T01:47:47;4.77;;;3.27;;
12663;SDS011;6396;58.490;15.528;2022-08-03T01:50:15;5.30;;;2.63;;
12663;SDS011;6396;58.490;15.528;2022-08-03T01:52:46;4.73;;;2.37;;
12663;SDS011;6396;58.490;15.528;2022-08-03T01:55:16;3.80;;;2.67;;
12663;SDS011;6396;58.490;15.528;2022-08-03T01:57:44;5.10;;;3.10;;
12663;SDS011;6396;58.490;15.528;2022-08-03T02:00:15;5.60;;;3.07;;
12663;SDS011;6396;58.490;15.528;2022-08-03T02:02:44;6.33;;;3.33;;
12663;SDS011;6396;58.490;15.528;2022-08-03T02:05:14;4.87;;;2.83;;
12663;SDS011;6396;58.490;15.528;2022-08-03T02:07:44;4.37;;;2.97;;
12663;SDS011;6396;58.490;15.528;2022-08-03T02:10:13;5.70;;;3.30;;
12663;SDS011;6396;58.490;15.528;2022-08-03T02:12:44;5.20;;;3.23;;
12663;SDS011;6396;58.490;15.528;2022-08-03T02:15:13;6.63;;;3.03;;
12663;SDS011;6396;58.490;15.528;2022-08-03T02:17:43;6.33;;;3.03;;
12663;SDS011;6396;58.490;15.528;2022-08-03T02:20:12;4.20;;;3.03;;
12663;SDS011;6396;58.490;15.528;2022-08-03T02:22:41;5.90;;;3.40;;
12663;SDS011;6396;58.490;15.528;2022-08-03T02:25:09;3.73;;;2.80;;
12663;SDS011;6396;58.490;15.528;2022-08-03T02:27:38;6.33;;;3.50;;
12663;SDS011;6396;58.490;15.528;2022-08-03T02:30:11;6.80;;;3.67;;
12663;SDS011;6396;58.490;15.528;2022-08-03T02:32:39;4.57;;;3.27;;
12663;SDS011;6396;58.490;15.528;2022-08-03T02:35:10;5.33;;;3.33;;
12663;SDS011;6396;58.490;15.528;2022-08-03T02:37:40;6.93;;;3.20;;
12663;SDS011;6396;58.490;15.528;2022-08-03T02:40:09;4.83;;;3.33;;
12663;SDS011;6396;58.490;15.528;2022-08-03T02:42:37;4.37;;;3.50;;
12663;SDS011;6396;58.490;15.528;2022-08-03T02:45:06;5.03;;;3.53;;
12663;SDS011;6396;58.490;15.528;2022-08-03T02:47:38;5.50;;;3.40;;
12663;SDS011;6396;58.490;15.528;2022-08-03T02:50:07;4.87;;;3.30;;
12663;SDS011;6396;58.490;15.528;2022-08-03T02:52:37;3.33;;;2.90;;
12663;SDS011;6396;58.490;15.528;2022-08-03T02:55:05;4.87;;;3.40;;
12663;SDS011;6396;58.490;15.528;2022-08-03T02:57:35;6.80;;;3.47;;
12663;SDS011;6396;58.490;15.528;2022-08-03T03:00:04;6.10;;;3.57;;
12663;SDS011;6396;58.490;15.528;2022-08-03T03:02:33;4.67;;;3.50;;
12663;SDS011;6396;58.490;15.528;2022-08-03T03:05:01;6.70;;;3.83;;
12663;SDS011;6396;58.490;15.528;2022-08-03T03:07:31;5.60;;;3.30;;
12663;SDS011;6396;58.490;15.528;2022-08-03T03:09:58;7.07;;;4.10;;
12663;SDS011;6396;58.490;15.528;2022-08-03T03:12:27;7.00;;;3.60;;
12663;SDS011;6396;58.490;15.528;2022-08-03T03:14:55;5.33;;;4.03;;
12663;SDS011;6396;58.490;15.528;2022-08-03T03:17:22;7.10;;;4.37;;
12663;SDS011;6396;58.490;15.528;2022-08-03T03:19:50;5.70;;;3.73;;
12663;SDS011;6396;58.490;15.528;2022-08-03T03:22:17;5.07;;;4.07;;
12663;SDS011;6396;58.490;15.528;2022-08-03T03:24:46;6.03;;;4.10;;
12663;SDS011;6396;58.490;15.528;2022-08-03T03:27:15;7.20;;;4.27;;
12663;SDS011;6396;58.490;15.528;2022-08-03T03:29:43;5.60;;;3.70;;
12663;SDS011;6396;58.490;15.528;2022-08-03T03:32:10;7.30;;;4.03;;
12663;SDS011;6396;58.490;15.528;2022-08-03T03:34:37;5.97;;;4.30;;
12663;SDS011;6396;58.490;15.528;2022-08-03T03:37:04;8.57;;;4.07;;
12663;SDS011;6396;58.490;15.528;2022-08-03T03:39:31;7.37;;;4.10;;
12663;SDS011;6396;58.490;15.528;2022-08-03T03:42:00;9.70;;;4.73;;
12663;SDS011;6396;58.490;15.528;2022-08-03T03:44:28;4.90;;;4.10;;
12663;SDS011;6396;58.490;15.528;2022-08-03T03:46:55;6.47;;;4.53;;
12663;SDS011;6396;58.490;15.528;2022-08-03T03:49:23;4.77;;;4.00;;
12663;SDS011;6396;58.490;15.528;2022-08-03T03:51:51;8.40;;;4.00;;
12663;SDS011;6396;58.490;15.528;2022-08-03T03:54:19;6.90;;;4.53;;
12663;SDS011;6396;58.490;15.528;2022-08-03T03:56:46;4.50;;;3.90;;
12663;SDS011;6396;58.490;15.528;2022-08-03T03:59:14;4.73;;;4.30;;
12663;SDS011;6396;58.490;15.528;2022-08-03T04:01:41;5.00;;;4.17;;
12663;SDS011;6396;58.490;15.528;2022-08-03T04:04:08;4.87;;;4.27;;
12663;SDS011;6396;58.490;15.528;2022-08-03T04:06:52;4.53;;;3.47;;
12663;SDS011;6396;58.490;15.528;2022-08-03T04:09:37;5.27;;;4.07;;
12663;SDS011;6396;58.490;15.528;2022-08-03T04:12:23;7.37;;;3.97;;
12663;SDS011;6396;58.490;15.528;2022-08-03T04:14:55;6.00;;;4.57;;
12663;SDS011;6396;58.490;15.528;2022-08-03T04:17:24;5.30;;;4.27;;
12663;SDS011;6396;58.490;15.528;2022-08-03T04:19:53;7.30;;;4.10;;
12663;SDS011;6396;58.490;15.528;2022-08-03T04:22:24;5.53;;;4.43;;
12663;SDS011;6396;58.490;15.528;2022-08-03T04:24:56;6.40;;;4.57;;
12663;SDS011;6396;58.490;15.528;2022-08-03T04:27:27;7.23;;;4.03;;
12663;SDS011;6396;58.490;15.528;2022-08-03T04:30:01;6.23;;;4.23;;
12663;SDS011;6396;58.490;15.528;2022-08-03T04:32:29;5.63;;;4.23;;
12663;SDS011;6396;58.490;15.528;2022-08-03T04:34:57;6.07;;;4.40;;
12663;SDS011;6396;58.490;15.528;2022-08-03T04:37:35;5.20;;;3.97;;
12663;SDS011;6396;58.490;15.528;2022-08-03T04:40:05;5.60;;;3.97;;
12663;SDS011;6396;58.490;15.528;2022-08-03T04:42:34;6.70;;;4.63;;
12663;SDS011;6396;58.490;15.528;2022-08-03T04:45:05;4.67;;;4.10;;
12663;SDS011;6396;58.490;15.528;2022-08-03T04:47:36;4.33;;;3.80;;
12663;SDS011;6396;58.490;15.528;2022-08-03T04:50:04;5.77;;;3.87;;
12663;SDS011;6396;58.490;15.528;2022-08-03T04:52:32;4.87;;;3.50;;
12663;SDS011;6396;58.490;15.528;2022-08-03T04:55:00;5.00;;;4.03;;
12663;SDS011;6396;58.490;15.528;2022-08-03T04:57:27;5.70;;;4.10;;
12663;SDS011;6396;58.490;15.528;2022-08-03T04:59:54;5.27;;;3.97;;
12663;SDS011;6396;58.490;15.528;2022-08-03T05:02:22;5.10;;;4.00;;
12663;SDS011;6396;58.490;15.528;2022-08-03T05:04:49;6.43;;;3.67;;
12663;SDS011;6396;58.490;15.528;2022-08-03T05:07:16;6.33;;;4.20;;
12663;SDS011;6396;58.490;15.528;2022-08-03T05:09:43;6.07;;;3.93;;
12663;SDS011;6396;58.490;15.528;2022-08-03T05:12:11;6.37;;;3.90;;
12663;SDS011;6396;58.490;15.528;2022-08-03T05:14:37;7.57;;;4.17;;
12663;SDS011;6396;58.490;15.528;2022-08-03T05:17:04;4.87;;;4.30;;
12663;SDS011;6396;58.490;15.528;2022-08-03T05:19:33;4.63;;;4.20;;
12663;SDS011;6396;58.490;15.528;2022-08-03T05:22:00;5.70;;;4.40;;
12663;SDS011;6396;58.490;15.528;2022-08-03T05:24:27;5.80;;;4.60;;
12663;SDS011;6396;58.490;15.528;2022-08-03T05:26:54;6.33;;;4.00;;
12663;SDS011;6396;58.490;15.528;2022-08-03T05:29:20;4.63;;;4.20;;
12663;SDS011;6396;58.490;15.528;2022-08-03T05:31:47;4.03;;;3.63;;
12663;SDS011;6396;58.490;15.528;2022-08-03T05:34:14;4.30;;;3.90;;
12663;SDS011;6396;58.490;15.528;2022-08-03T05:36:42;4.20;;;3.80;;
12663;SDS011;6396;58.490;15.528;2022-08-03T05:39:09;5.00;;;3.83;;
12663;SDS011;6396;58.490;15.528;2022-08-03T05:41:36;4.43;;;3.67;;
12663;SDS011;6396;58.490;15.528;2022-08-03T05:44:03;4.47;;;3.70;;
12663;SDS011;6396;58.490;15.528;2022-08-03T05:46:30;5.17;;;3.40;;
12663;SDS011;6396;58.490;15.528;2022-08-03T05:48:57;4.17;;;3.77;;
12663;SDS011;6396;58.490;15.528;2022-08-03T05:51:23;4.00;;;3.57;;
12663;SDS011;6396;58.490;15.528;2022-08-03T05:53:52;6.37;;;4.00;;
12663;SDS011;6396;58.490;15.528;2022-08-03T05:56:20;3.67;;;3.33;;
12663;SDS011;6396;58.490;15.528;2022-08-03T05:58:49;5.77;;;3.73;;
12663;SDS011;6396;58.490;15.528;2022-08-03T06:01:16;5.10;;;4.10;;
12663;SDS011;6396;58.490;15.528;2022-08-03T06:03:45;5.13;;;3.60;;
12663;SDS011;6396;58.490;15.528;2022-08-03T06:06:12;3.93;;;3.40;;
12663;SDS011;6396;58.490;15.528;2022-08-03T06:08:40;3.93;;;3.50;;
12663;SDS011;6396;58.490;15.528;2022-08-03T06:11:09;4.80;;;3.70;;
12663;SDS011;6396;58.490;15.528;2022-08-03T06:13:35;4.63;;;3.40;;
12663;SDS011;6396;58.490;15.528;2022-08-03T06:16:03;4.57;;;3.77;;
12663;SDS011;6396;58.490;15.528;2022-08-03T06:18:30;3.83;;;3.50;;
12663;SDS011;6396;58.490;15.528;2022-08-03T06:20:57;5.70;;;3.87;;
12663;SDS011;6396;58.490;15.528;2022-08-03T06:23:24;4.63;;;4.00;;
12663;SDS011;6396;58.490;15.528;2022-08-03T06:25:50;5.03;;;3.40;;
12663;SDS011;6396;58.490;15.528;2022-08-03T06:28:19;4.90;;;3.13;;
12663;SDS011;6396;58.490;15.528;2022-08-03T06:30:45;4.37;;;3.13;;
12663;SDS011;6396;58.490;15.528;2022-08-03T06:33:12;3.87;;;3.13;;
12663;SDS011;6396;58.490;15.528;2022-08-03T06:35:39;3.53;;;3.03;;
12663;SDS011;6396;58.490;15.528;2022-08-03T06:38:06;3.27;;;2.97;;
12663;SDS011;6396;58.490;15.528;2022-08-03T06:40:35;3.27;;;2.77;;
12663;SDS011;6396;58.490;15.528;2022-08-03T06:43:04;3.87;;;2.77;;
12663;SDS011;6396;58.490;15.528;2022-08-03T06:45:33;3.87;;;3.23;;
12663;SDS011;6396;58.490;15.528;2022-08-03T06:48:01;3.23;;;2.90;;
12663;SDS011;6396;58.490;15.528;2022-08-03T06:50:28;3.50;;;3.20;;
12663;SDS011;6396;58.490;15.528;2022-08-03T06:52:55;5.07;;;3.27;;
12663;SDS011;6396;58.490;15.528;2022-08-03T06:55:22;3.40;;;2.50;;
12663;SDS011;6396;58.490;15.528;2022-08-03T06:57:49;3.67;;;3.00;;
12663;SDS011;6396;58.490;15.528;2022-08-03T07:00:16;3.37;;;2.40;;
12663;SDS011;6396;58.490;15.528;2022-08-03T07:02:45;3.10;;;2.40;;
12663;SDS011;6396;58.490;15.528;2022-08-03T07:05:12;2.70;;;2.50;;
12663;SDS011;6396;58.490;15.528;2022-08-03T07:07:39;4.20;;;2.97;;
12663;SDS011;6396;58.490;15.528;2022-08-03T07:10:07;2.90;;;2.70;;
12663;SDS011;6396;58.490;15.528;2022-08-03T07:12:36;3.57;;;3.27;;
12663;SDS011;6396;58.490;15.528;2022-08-03T07:15:04;2.60;;;2.40;;
12663;SDS011;6396;58.490;15.528;2022-08-03T07:17:32;2.63;;;2.43;;
12663;SDS011;6396;58.490;15.528;2022-08-03T07:20:03;4.63;;;2.80;;
12663;SDS011;6396;58.490;15.528;2022-08-03T07:22:32;2.93;;;2.67;;
12663;SDS011;6396;58.490;15.528;2022-08-03T07:24:59;2.83;;;2.57;;
12663;SDS011;6396;58.490;15.528;2022-08-03T07:27:26;3.00;;;2.80;;
12663;SDS011;6396;58.490;15.528;2022-08-03T07:29:55;3.97;;;2.80;;
12663;SDS011;6396;58.490;15.528;2022-08-03T07:32:22;4.57;;;2.83;;
12663;SDS011;6396;58.490;15.528;2022-08-03T07:34:49;3.63;;;2.73;;
12663;SDS011;6396;58.490;15.528;2022-08-03T07:37:18;3.43;;;2.93;;
12663;SDS011;6396;58.490;15.528;2022-08-03T07:39:45;3.13;;;2.83;;
12663;SDS011;6396;58.490;15.528;2022-08-03T07:42:12;3.33;;;2.70;;
12663;SDS011;6396;58.490;15.528;2022-08-03T07:44:38;4.40;;;3.37;;
12663;SDS011;6396;58.490;15.528;2022-08-03T07:47:05;3.50;;;2.83;;
12663;SDS011;6396;58.490;15.528;2022-08-03T07:49:32;4.27;;;3.00;;
12663;SDS011;6396;58.490;15.528;2022-08-03T07:51:59;3.70;;;3.00;;
12663;SDS011;6396;58.490;15.528;2022-08-03T07:54:45;5.80;;;3.00;;
12663;SDS011;6396;58.490;15.528;2022-08-03T07:57:12;2.93;;;2.70;;
12663;SDS011;6396;58.490;15.528;2022-08-03T07:59:38;3.80;;;3.23;;
12663;SDS011;6396;58.490;15.528;2022-08-03T08:02:05;4.03;;;3.17;;
12663;SDS011;6396;58.490;15.528;2022-08-03T08:04:32;3.70;;;3.00;;
12663;SDS011;6396;58.490;15.528;2022-08-03T08:06:59;4.23;;;2.70;;
12663;SDS011;6396;58.490;15.528;2022-08-03T08:09:26;3.00;;;2.70;;
12663;SDS011;6396;58.490;15.528;2022-08-03T08:11:54;5.00;;;2.93;;
12663;SDS011;6396;58.490;15.528;2022-08-03T08:14:21;3.30;;;3.00;;
12663;SDS011;6396;58.490;15.528;2022-08-03T08:16:48;3.93;;;2.87;;
12663;SDS011;6396;58.490;15.528;2022-08-03T08:19:15;3.50;;;3.20;;
12663;SDS011;6396;58.490;15.528;2022-08-03T08:21:42;2.70;;;2.50;;
12663;SDS011;6396;58.490;15.528;2022-08-03T08:24:09;3.20;;;2.90;;
12663;SDS011;6396;58.490;15.528;2022-08-03T08:26:36;3.30;;;3.00;;
12663;SDS011;6396;58.490;15.528;2022-08-03T08:29:04;3.20;;;3.00;;
12663;SDS011;6396;58.490;15.528;2022-08-03T08:31:31;4.17;;;3.37;;
12663;SDS011;6396;58.490;15.528;2022-08-03T08:33:58;4.03;;;3.50;;
12663;SDS011;6396;58.490;15.528;2022-08-03T08:36:29;3.93;;;3.47;;
12663;SDS011;6396;58.490;15.528;2022-08-03T08:38:56;6.60;;;3.60;;
12663;SDS011;6396;58.490;15.528;2022-08-03T08:41:23;3.90;;;3.50;;
12663;SDS011;6396;58.490;15.528;2022-08-03T08:43:50;3.93;;;3.57;;
12663;SDS011;6396;58.490;15.528;2022-08-03T08:46:18;4.27;;;3.77;;
12663;SDS011;6396;58.490;15.528;2022-08-03T08:48:45;4.37;;;3.60;;
12663;SDS011;6396;58.490;15.528;2022-08-03T08:51:14;3.90;;;3.60;;
12663;SDS011;6396;58.490;15.528;2022-08-03T08:53:45;4.17;;;3.70;;
12663;SDS011;6396;58.490;15.528;2022-08-03T08:56:16;4.23;;;3.43;;
12663;SDS011;6396;58.490;15.528;2022-08-03T08:58:50;5.07;;;3.67;;
12663;SDS011;6396;58.490;15.528;2022-08-03T09:01:19;3.57;;;3.27;;
12663;SDS011;6396;58.490;15.528;2022-08-03T09:03:46;4.47;;;3.90;;
12663;SDS011;6396;58.490;15.528;2022-08-03T09:06:14;4.77;;;4.20;;
12663;SDS011;6396;58.490;15.528;2022-08-03T09:08:41;3.40;;;3.10;;
12663;SDS011;6396;58.490;15.528;2022-08-03T09:11:07;4.20;;;3.40;;
12663;SDS011;6396;58.490;15.528;2022-08-03T09:13:35;3.87;;;3.37;;
12663;SDS011;6396;58.490;15.528;2022-08-03T09:16:09;4.87;;;3.67;;
12663;SDS011;6396;58.490;15.528;2022-08-03T09:18:39;3.80;;;3.40;;
12663;SDS011;6396;58.490;15.528;2022-08-03T09:21:17;4.77;;;3.77;;
12663;SDS011;6396;58.490;15.528;2022-08-03T09:23:45;3.93;;;3.50;;
12663;SDS011;6396;58.490;15.528;2022-08-03T09:26:18;4.10;;;3.27;;
12663;SDS011;6396;58.490;15.528;2022-08-03T09:28:46;4.93;;;3.60;;
12663;SDS011;6396;58.490;15.528;2022-08-03T09:31:27;4.07;;;3.30;;
12663;SDS011;6396;58.490;15.528;2022-08-03T09:33:56;4.23;;;3.77;;
12663;SDS011;6396;58.490;15.528;2022-08-03T09:36:39;3.67;;;3.27;;
12663;SDS011;6396;58.490;15.528;2022-08-03T09:39:07;4.63;;;3.37;;
12663;SDS011;6396;58.490;15.528;2022-08-03T09:41:36;4.97;;;3.83;;
12663;SDS011;6396;58.490;15.528;2022-08-03T09:44:04;6.53;;;3.57;;
12663;SDS011;6396;58.490;15.528;2022-08-03T09:46:31;3.60;;;3.30;;
12663;SDS011;6396;58.490;15.528;2022-08-03T09:49:13;4.97;;;3.20;;
12663;SDS011;6396;58.490;15.528;2022-08-03T09:51:40;3.20;;;2.90;;
12663;SDS011;6396;58.490;15.528;2022-08-03T09:54:07;4.93;;;3.20;;
12663;SDS011;6396;58.490;15.528;2022-08-03T09:56:41;4.43;;;3.70;;
12663;SDS011;6396;58.490;15.528;2022-08-03T09:59:09;6.03;;;3.67;;
12663;SDS011;6396;58.490;15.528;2022-08-03T10:01:38;5.37;;;3.30;;
12663;SDS011;6396;58.490;15.528;2022-08-03T10:04:10;4.90;;;3.33;;
12663;SDS011;6396;58.490;15.528;2022-08-03T10:06:41;5.37;;;3.47;;
12663;SDS011;6396;58.490;15.528;2022-08-03T10:09:10;5.87;;;3.53;;
12663;SDS011;6396;58.490;15.528;2022-08-03T10:11:38;4.63;;;3.47;;
12663;SDS011;6396;58.490;15.528;2022-08-03T10:14:06;3.87;;;3.47;;
12663;SDS011;6396;58.490;15.528;2022-08-03T10:16:35;5.50;;;3.40;;
12663;SDS011;6396;58.490;15.528;2022-08-03T10:19:03;7.60;;;4.33;;
12663;SDS011;6396;58.490;15.528;2022-08-03T10:21:32;9.43;;;4.47;;
12663;SDS011;6396;58.490;15.528;2022-08-03T10:24:05;7.53;;;4.10;;
12663;SDS011;6396;58.490;15.528;2022-08-03T10:26:35;7.30;;;3.80;;
12663;SDS011;6396;58.490;15.528;2022-08-03T10:29:04;4.43;;;3.50;;
12663;SDS011;6396;58.490;15.528;2022-08-03T10:31:37;8.60;;;3.60;;
12663;SDS011;6396;58.490;15.528;2022-08-03T10:34:06;5.83;;;3.90;;
12663;SDS011;6396;58.490;15.528;2022-08-03T10:36:40;6.80;;;3.97;;
12663;SDS011;6396;58.490;15.528;2022-08-03T10:39:10;5.93;;;3.43;;
12663;SDS011;6396;58.490;15.528;2022-08-03T10:41:39;7.97;;;3.60;;
12663;SDS011;6396;58.490;15.528;2022-08-03T10:44:09;5.40;;;3.70;;
12663;SDS011;6396;58.490;15.528;2022-08-03T10:46:40;4.67;;;3.30;;
12663;SDS011;6396;58.490;15.528;2022-08-03T10:49:11;6.23;;;4.33;;
12663;SDS011;6396;58.490;15.528;2022-08-03T10:51:39;4.97;;;3.97;;
12663;SDS011;6396;58.490;15.528;2022-08-03T10:54:07;4.53;;;3.60;;
12663;SDS011;6396;58.490;15.528;2022-08-03T10:57:41;5.33;;;3.50;;
12663;SDS011;6396;58.490;15.528;2022-08-03T11:00:12;8.67;;;4.20;;
12663;SDS011;6396;58.490;15.528;2022-08-03T11:05:33;5.33;;;3.77;;
12663;SDS011;6396;58.490;15.528;2022-08-03T11:08:21;7.80;;;3.83;;
12663;SDS011;6396;58.490;15.528;2022-08-03T11:10:55;7.83;;;4.27;;
12663;SDS011;6396;58.490;15.528;2022-08-03T11:13:24;7.17;;;4.37;;
12663;SDS011;6396;58.490;15.528;2022-08-03T11:15:55;4.87;;;3.53;;
12663;SDS011;6396;58.490;15.528;2022-08-03T11:18:24;6.57;;;3.73;;
12663;SDS011;6396;58.490;15.528;2022-08-03T11:20:51;6.27;;;3.50;;
12663;SDS011;6396;58.490;15.528;2022-08-03T11:23:39;4.57;;;3.27;;
12663;SDS011;6396;58.490;15.528;2022-08-03T11:26:17;3.87;;;3.27;;
12663;SDS011;6396;58.490;15.528;2022-08-03T11:28:46;4.70;;;3.40;;
12663;SDS011;6396;58.490;15.528;2022-08-03T11:34:13;3.97;;;3.30;;
12663;SDS011;6396;58.490;15.528;2022-08-03T11:39:50;4.27;;;3.00;;
12663;SDS011;6396;58.490;15.528;2022-08-03T11:45:12;4.03;;;3.07;;
12663;SDS011;6396;58.490;15.528;2022-08-03T11:47:39;3.40;;;3.10;;
12663;SDS011;6396;58.490;15.528;2022-08-03T11:50:08;4.00;;;3.13;;
12663;SDS011;6396;58.490;15.528;2022-08-03T11:52:37;4.57;;;3.23;;
12663;SDS011;6396;58.490;15.528;2022-08-03T11:55:09;3.97;;;2.93;;
12663;SDS011;6396;58.490;15.528;2022-08-03T11:57:37;5.37;;;3.00;;
12663;SDS011;6396;58.490;15.528;2022-08-03T12:03:02;3.90;;;3.37;;
12663;SDS011;6396;58.490;15.528;2022-08-03T12:05:40;5.10;;;3.17;;
12663;SDS011;6396;58.490;15.528;2022-08-03T12:08:12;8.87;;;3.27;;
12663;SDS011;6396;58.490;15.528;2022-08-03T12:10:45;5.57;;;3.10;;
12663;SDS011;6396;58.490;15.528;2022-08-03T12:13:13;4.73;;;3.30;;
12663;SDS011;6396;58.490;15.528;2022-08-03T12:15:42;5.90;;;3.33;;
12663;SDS011;6396;58.490;15.528;2022-08-03T12:18:12;4.37;;;3.13;;
12663;SDS011;6396;58.490;15.528;2022-08-03T12:20:42;4.40;;;2.93;;
12663;SDS011;6396;58.490;15.528;2022-08-03T12:23:09;5.83;;;3.20;;
12663;SDS011;6396;58.490;15.528;2022-08-03T12:25:37;5.03;;;3.30;;
12663;SDS011;6396;58.490;15.528;2022-08-03T12:28:06;3.77;;;3.00;;
12663;SDS011;6396;58.490;15.528;2022-08-03T12:30:45;4.50;;;2.87;;
12663;SDS011;6396;58.490;15.528;2022-08-03T12:33:17;4.53;;;3.10;;
12663;SDS011;6396;58.490;15.528;2022-08-03T12:35:49;5.33;;;2.90;;
12663;SDS011;6396;58.490;15.528;2022-08-03T12:38:27;6.13;;;2.97;;
12663;SDS011;6396;58.490;15.528;2022-08-03T12:40:58;4.07;;;3.20;;
12663;SDS011;6396;58.490;15.528;2022-08-03T12:43:26;3.33;;;2.80;;
12663;SDS011;6396;58.490;15.528;2022-08-03T12:46:07;6.50;;;3.10;;
12663;SDS011;6396;58.490;15.528;2022-08-03T12:48:35;5.77;;;3.30;;
12663;SDS011;6396;58.490;15.528;2022-08-03T12:51:08;4.23;;;3.00;;
12663;SDS011;6396;58.490;15.528;2022-08-03T12:53:35;5.67;;;3.10;;
12663;SDS011;6396;58.490;15.528;2022-08-03T12:56:03;3.90;;;2.70;;
12663;SDS011;6396;58.490;15.528;2022-08-03T12:58:33;3.90;;;3.37;;
12663;SDS011;6396;58.490;15.528;2022-08-03T13:01:01;3.50;;;2.87;;
12663;SDS011;6396;58.490;15.528;2022-08-03T13:03:30;7.33;;;3.10;;
12663;SDS011;6396;58.490;15.528;2022-08-03T13:06:09;4.77;;;2.97;;
12663;SDS011;6396;58.490;15.528;2022-08-03T13:08:36;3.53;;;2.60;;
12663;SDS011;6396;58.490;15.528;2022-08-03T13:11:16;4.43;;;2.90;;
12663;SDS011;6396;58.490;15.528;2022-08-03T13:13:44;4.23;;;2.93;;
12663;SDS011;6396;58.490;15.528;2022-08-03T13:16:10;5.37;;;2.80;;
12663;SDS011;6396;58.490;15.528;2022-08-03T13:18:39;4.57;;;2.93;;
12663;SDS011;6396;58.490;15.528;2022-08-03T13:21:06;2.97;;;2.63;;
12663;SDS011;6396;58.490;15.528;2022-08-03T13:23:32;4.33;;;2.90;;
12663;SDS011;6396;58.490;15.528;2022-08-03T13:25:59;3.97;;;3.00;;
12663;SDS011;6396;58.490;15.528;2022-08-03T13:28:26;4.53;;;2.97;;
12663;SDS011;6396;58.490;15.528;2022-08-03T13:30:53;3.50;;;3.20;;
12663;SDS011;6396;58.490;15.528;2022-08-03T13:33:20;3.83;;;3.43;;
12663;SDS011;6396;58.490;15.528;2022-08-03T13:35:48;4.13;;;2.90;;
12663;SDS011;6396;58.490;15.528;2022-08-03T13:38:15;3.67;;;3.10;;
12663;SDS011;6396;58.490;15.528;2022-08-03T13:40:42;6.77;;;3.30;;
12663;SDS011;6396;58.490;15.528;2022-08-03T13:43:09;3.57;;;3.00;;
12663;SDS011;6396;58.490;15.528;2022-08-03T13:45:36;6.20;;;3.43;;
12663;SDS011;6396;58.490;15.528;2022-08-03T13:48:03;4.53;;;2.63;;
12663;SDS011;6396;58.490;15.528;2022-08-03T13:50:30;4.07;;;2.73;;
12663;SDS011;6396;58.490;15.528;2022-08-03T13:52:58;4.47;;;2.97;;
12663;SDS011;6396;58.490;15.528;2022-08-03T13:55:25;2.90;;;2.60;;
12663;SDS011;6396;58.490;15.528;2022-08-03T13:57:52;5.50;;;3.67;;
12663;SDS011;6396;58.490;15.528;2022-08-03T14:00:19;5.63;;;3.17;;
12663;SDS011;6396;58.490;15.528;2022-08-03T14:02:49;7.17;;;3.10;;
12663;SDS011;6396;58.490;15.528;2022-08-03T14:05:16;5.73;;;2.83;;
12663;SDS011;6396;58.490;15.528;2022-08-03T14:07:43;3.80;;;2.93;;
12663;SDS011;6396;58.490;15.528;2022-08-03T14:10:12;3.67;;;3.30;;
12663;SDS011;6396;58.490;15.528;2022-08-03T14:12:39;6.47;;;2.97;;
12663;SDS011;6396;58.490;15.528;2022-08-03T14:15:06;4.17;;;3.77;;
12663;SDS011;6396;58.490;15.528;2022-08-03T14:17:34;7.53;;;3.20;;
12663;SDS011;6396;58.490;15.528;2022-08-03T14:20:01;5.90;;;3.03;;
12663;SDS011;6396;58.490;15.528;2022-08-03T14:22:29;3.33;;;3.00;;
12663;SDS011;6396;58.490;15.528;2022-08-03T14:24:56;2.80;;;2.50;;
12663;SDS011;6396;58.490;15.528;2022-08-03T14:27:24;4.43;;;2.53;;
12663;SDS011;6396;58.490;15.528;2022-08-03T14:29:51;4.10;;;2.77;;
12663;SDS011;6396;58.490;15.528;2022-08-03T14:32:20;4.17;;;2.90;;
12663;SDS011;6396;58.490;15.528;2022-08-03T14:34:47;2.70;;;2.50;;
12663;SDS011;6396;58.490;15.528;2022-08-03T14:37:17;5.87;;;3.03;;
12663;SDS011;6396;58.490;15.528;2022-08-03T14:39:45;4.93;;;3.07;;
12663;SDS011;6396;58.490;15.528;2022-08-03T14:42:17;4.03;;;2.60;;
12663;SDS011;6396;58.490;15.528;2022-08-03T14:44:46;6.67;;;3.20;;
12663;SDS011;6396;58.490;15.528;2022-08-03T14:47:13;5.77;;;3.00;;
12663;SDS011;6396;58.490;15.528;2022-08-03T14:49:40;4.90;;;3.00;;
12663;SDS011;6396;58.490;15.528;2022-08-03T14:52:07;3.53;;;2.70;;
12663;SDS011;6396;58.490;15.528;2022-08-03T14:54:34;5.50;;;2.87;;
12663;SDS011;6396;58.490;15.528;2022-08-03T14:57:02;4.93;;;3.13;;
12663;SDS011;6396;58.490;15.528;2022-08-03T14:59:32;4.33;;;3.33;;
12663;SDS011;6396;58.490;15.528;2022-08-03T15:02:00;3.13;;;2.90;;
12663;SDS011;6396;58.490;15.528;2022-08-03T15:04:30;3.73;;;3.00;;
12663;SDS011;6396;58.490;15.528;2022-08-03T15:06:58;4.23;;;3.00;;
12663;SDS011;6396;58.490;15.528;2022-08-03T15:09:29;6.57;;;3.33;;
12663;SDS011;6396;58.490;15.528;2022-08-03T15:11:57;3.30;;;2.87;;
12663;SDS011;6396;58.490;15.528;2022-08-03T15:14:26;2.90;;;2.70;;